Airfield :
LOGIN :

Register | Disclaimer

   EN    FR    IT 

 










Legend :    VFR   Marginal VFR   IFR   Intensive IFR   Very Intensive IFR
Visi :
Ceiling :
>= 8 km
>= 3000ft
5 to 8 km
1000 to 3000 ft
1500m to 5 km
500 to 1000 ft
800 to 1500m
200 to 500 ft
< 800m
< 200 ft
Symbols :   Thunderstorms  Fog  Heavy snow  Heavy precipitations  Wind > 20 kt
SIGMETs :     Misc.  Thunderstorms  Icing  Turbulence  Mountain Waves  Volcanic Ashes







- Airport Elevation : 17 ft
- IATA code : MHQ


EFMA - Mariehamn

CURRENT METAR :
  • 172220Z AUTO 28007KT 250V310 9999 BKN026 M04/M07 Q0994

EXPIRED METARs :
  • 172150Z AUTO 29009KT 260V320 9999 BKN028 M03/M07 Q0994
  • 172120Z AUTO 30007KT 270V330 9999 OVC030 M03/M07 Q0994
  • 172050Z 28005KT 250V310 9999 -SHSN OVC027 M04/M07 Q0993
  • 172020Z 32003KT 290V360 9999 OVC034 M04/M08 Q0993
  • 171950Z 31005KT 280V340 9999 BKN032 M04/M08 Q0993

TAF TAF EFMA
Valid from the 17 at 21:00 until the 18 at 06:00 UTC


172027Z 1721/1806 30008KT 9999 BKN030
PROB30
TEMPO 1721/1806 4000 -SHSN BKN014
PROB40 1801/1805 BKN009
No reported NOTAMs for that airfield.



MET'MAP, your aeronautical weather chart ! - Copyright ORBIFLY December 2007 - Disclaimer

ORBIFLY MET'MAP TEAM :

Programming & Development : Alexandra Zaïnal
Concept & Development : Baudouin d'Aumeries
Co-Development & Prog : Marc-Olivier Méhu
Technical & hardware support : Manuel Goepfert

Contact : metmap@orbifly.com




SOURCES & CREDITS :

   NOAA